sensor_id;sensor_type;location;lat;lon;timestamp;P1;durP1;ratioP1;P2;durP2;ratioP2
51566;SDS011;37657;53.182;5.638;2023-08-06T00:00:21;12.77;;;5.43;;
51566;SDS011;37657;53.182;5.638;2023-08-06T00:02:47;5.90;;;4.60;;
51566;SDS011;37657;53.182;5.638;2023-08-06T00:05:13;8.90;;;5.63;;
51566;SDS011;37657;53.182;5.638;2023-08-06T00:07:43;8.35;;;5.47;;
51566;SDS011;37657;53.182;5.638;2023-08-06T00:10:09;8.02;;;5.53;;
51566;SDS011;37657;53.182;5.638;2023-08-06T00:12:35;6.05;;;4.93;;
51566;SDS011;37657;53.182;5.638;2023-08-06T00:15:00;6.53;;;5.25;;
51566;SDS011;37657;53.182;5.638;2023-08-06T00:17:26;7.25;;;5.03;;
51566;SDS011;37657;53.182;5.638;2023-08-06T00:19:51;8.23;;;4.75;;
51566;SDS011;37657;53.182;5.638;2023-08-06T00:22:17;7.55;;;4.82;;
51566;SDS011;37657;53.182;5.638;2023-08-06T00:24:42;7.93;;;4.90;;
51566;SDS011;37657;53.182;5.638;2023-08-06T00:27:08;9.52;;;6.38;;
51566;SDS011;37657;53.182;5.638;2023-08-06T00:29:33;8.23;;;7.03;;
51566;SDS011;37657;53.182;5.638;2023-08-06T00:31:59;7.38;;;6.07;;
51566;SDS011;37657;53.182;5.638;2023-08-06T00:34:24;9.13;;;6.50;;
51566;SDS011;37657;53.182;5.638;2023-08-06T00:36:50;9.32;;;6.30;;
51566;SDS011;37657;53.182;5.638;2023-08-06T00:39:16;7.10;;;6.13;;
51566;SDS011;37657;53.182;5.638;2023-08-06T00:41:41;11.68;;;6.95;;
51566;SDS011;37657;53.182;5.638;2023-08-06T00:44:07;7.65;;;6.43;;
51566;SDS011;37657;53.182;5.638;2023-08-06T00:46:32;7.45;;;5.78;;
51566;SDS011;37657;53.182;5.638;2023-08-06T00:48:58;8.35;;;7.30;;
51566;SDS011;37657;53.182;5.638;2023-08-06T00:51:24;10.82;;;8.30;;
51566;SDS011;37657;53.182;5.638;2023-08-06T00:53:50;9.35;;;7.88;;
51566;SDS011;37657;53.182;5.638;2023-08-06T00:56:17;10.90;;;8.32;;
51566;SDS011;37657;53.182;5.638;2023-08-06T00:58:43;11.60;;;7.47;;
51566;SDS011;37657;53.182;5.638;2023-08-06T01:01:10;10.30;;;7.43;;
51566;SDS011;37657;53.182;5.638;2023-08-06T01:03:36;11.60;;;7.65;;
51566;SDS011;37657;53.182;5.638;2023-08-06T01:06:01;15.18;;;8.57;;
51566;SDS011;37657;53.182;5.638;2023-08-06T01:08:33;9.10;;;7.55;;
51566;SDS011;37657;53.182;5.638;2023-08-06T01:13:42;8.95;;;7.72;;
51566;SDS011;37657;53.182;5.638;2023-08-06T01:16:13;12.68;;;8.80;;
51566;SDS011;37657;53.182;5.638;2023-08-06T01:18:41;8.95;;;7.40;;
51566;SDS011;37657;53.182;5.638;2023-08-06T01:21:06;11.90;;;9.13;;
51566;SDS011;37657;53.182;5.638;2023-08-06T01:23:32;11.63;;;9.50;;
51566;SDS011;37657;53.182;5.638;2023-08-06T01:31:43;15.50;;;11.30;;
51566;SDS011;37657;53.182;5.638;2023-08-06T01:34:23;12.07;;;10.02;;
51566;SDS011;37657;53.182;5.638;2023-08-06T01:36:51;14.27;;;10.25;;
51566;SDS011;37657;53.182;5.638;2023-08-06T01:39:17;10.95;;;8.75;;
51566;SDS011;37657;53.182;5.638;2023-08-06T01:41:46;14.25;;;11.85;;
51566;SDS011;37657;53.182;5.638;2023-08-06T01:44:12;12.95;;;9.90;;
51566;SDS011;37657;53.182;5.638;2023-08-06T01:46:38;11.52;;;9.45;;
51566;SDS011;37657;53.182;5.638;2023-08-06T01:49:03;14.95;;;10.48;;
51566;SDS011;37657;53.182;5.638;2023-08-06T01:51:29;17.05;;;11.65;;
51566;SDS011;37657;53.182;5.638;2023-08-06T01:53:55;10.82;;;9.55;;
51566;SDS011;37657;53.182;5.638;2023-08-06T01:56:20;14.60;;;10.00;;
51566;SDS011;37657;53.182;5.638;2023-08-06T01:58:46;12.85;;;9.50;;
51566;SDS011;37657;53.182;5.638;2023-08-06T02:01:11;11.63;;;9.90;;
51566;SDS011;37657;53.182;5.638;2023-08-06T02:03:37;14.40;;;11.90;;
51566;SDS011;37657;53.182;5.638;2023-08-06T02:06:02;13.05;;;10.32;;
51566;SDS011;37657;53.182;5.638;2023-08-06T02:08:28;10.48;;;9.07;;
51566;SDS011;37657;53.182;5.638;2023-08-06T02:10:54;13.38;;;10.07;;
51566;SDS011;37657;53.182;5.638;2023-08-06T02:13:19;12.88;;;10.00;;
51566;SDS011;37657;53.182;5.638;2023-08-06T02:15:45;12.43;;;10.30;;
51566;SDS011;37657;53.182;5.638;2023-08-06T02:18:14;15.02;;;9.98;;
51566;SDS011;37657;53.182;5.638;2023-08-06T02:20:40;10.05;;;9.15;;
51566;SDS011;37657;53.182;5.638;2023-08-06T02:23:06;11.43;;;10.07;;
51566;SDS011;37657;53.182;5.638;2023-08-06T02:25:31;9.95;;;8.90;;
51566;SDS011;37657;53.182;5.638;2023-08-06T02:27:57;11.00;;;9.82;;
51566;SDS011;37657;53.182;5.638;2023-08-06T02:30:23;9.73;;;8.70;;
51566;SDS011;37657;53.182;5.638;2023-08-06T02:32:48;11.82;;;9.70;;
51566;SDS011;37657;53.182;5.638;2023-08-06T02:35:14;12.93;;;9.88;;
51566;SDS011;37657;53.182;5.638;2023-08-06T02:37:39;13.40;;;10.48;;
51566;SDS011;37657;53.182;5.638;2023-08-06T02:40:05;12.18;;;9.02;;
51566;SDS011;37657;53.182;5.638;2023-08-06T02:42:31;16.00;;;10.32;;
51566;SDS011;37657;53.182;5.638;2023-08-06T02:44:56;10.90;;;8.63;;
51566;SDS011;37657;53.182;5.638;2023-08-06T02:47:22;11.73;;;8.85;;
51566;SDS011;37657;53.182;5.638;2023-08-06T02:49:48;15.20;;;9.70;;
51566;SDS011;37657;53.182;5.638;2023-08-06T02:52:14;10.27;;;9.27;;
51566;SDS011;37657;53.182;5.638;2023-08-06T02:54:39;12.75;;;9.10;;
51566;SDS011;37657;53.182;5.638;2023-08-06T02:57:05;10.05;;;8.95;;
51566;SDS011;37657;53.182;5.638;2023-08-06T02:59:31;15.88;;;10.43;;
51566;SDS011;37657;53.182;5.638;2023-08-06T03:01:57;13.00;;;10.57;;
51566;SDS011;37657;53.182;5.638;2023-08-06T03:04:22;12.20;;;10.07;;
51566;SDS011;37657;53.182;5.638;2023-08-06T03:06:51;10.43;;;7.97;;
51566;SDS011;37657;53.182;5.638;2023-08-06T03:09:17;9.95;;;8.70;;
51566;SDS011;37657;53.182;5.638;2023-08-06T03:11:43;13.82;;;10.68;;
51566;SDS011;37657;53.182;5.638;2023-08-06T03:14:08;10.20;;;8.73;;
51566;SDS011;37657;53.182;5.638;2023-08-06T03:16:34;13.98;;;8.60;;
51566;SDS011;37657;53.182;5.638;2023-08-06T03:19:00;13.05;;;10.43;;
51566;SDS011;37657;53.182;5.638;2023-08-06T03:21:25;14.77;;;10.90;;
51566;SDS011;37657;53.182;5.638;2023-08-06T03:23:51;18.58;;;11.63;;
51566;SDS011;37657;53.182;5.638;2023-08-06T03:26:16;11.55;;;8.82;;
51566;SDS011;37657;53.182;5.638;2023-08-06T03:28:42;9.27;;;8.30;;
51566;SDS011;37657;53.182;5.638;2023-08-06T03:31:08;11.02;;;9.23;;
51566;SDS011;37657;53.182;5.638;2023-08-06T03:33:34;12.15;;;8.82;;
51566;SDS011;37657;53.182;5.638;2023-08-06T03:35:59;10.57;;;9.30;;
51566;SDS011;37657;53.182;5.638;2023-08-06T03:38:25;11.77;;;9.95;;
51566;SDS011;37657;53.182;5.638;2023-08-06T03:40:50;14.00;;;10.63;;
51566;SDS011;37657;53.182;5.638;2023-08-06T03:43:16;11.93;;;9.90;;
51566;SDS011;37657;53.182;5.638;2023-08-06T03:45:42;10.10;;;9.10;;
51566;SDS011;37657;53.182;5.638;2023-08-06T03:48:08;11.15;;;9.73;;
51566;SDS011;37657;53.182;5.638;2023-08-06T03:50:34;15.27;;;11.02;;
51566;SDS011;37657;53.182;5.638;2023-08-06T03:53:00;10.68;;;8.50;;
51566;SDS011;37657;53.182;5.638;2023-08-06T03:55:25;11.20;;;10.00;;
51566;SDS011;37657;53.182;5.638;2023-08-06T03:57:51;14.73;;;9.25;;
51566;SDS011;37657;53.182;5.638;2023-08-06T04:00:16;10.32;;;9.15;;
51566;SDS011;37657;53.182;5.638;2023-08-06T04:02:42;11.95;;;9.18;;
51566;SDS011;37657;53.182;5.638;2023-08-06T04:05:08;15.25;;;10.70;;
51566;SDS011;37657;53.182;5.638;2023-08-06T04:07:33;11.60;;;10.15;;
51566;SDS011;37657;53.182;5.638;2023-08-06T04:10:00;12.20;;;10.05;;
51566;SDS011;37657;53.182;5.638;2023-08-06T04:12:27;9.55;;;8.57;;
51566;SDS011;37657;53.182;5.638;2023-08-06T04:14:53;11.60;;;8.73;;
51566;SDS011;37657;53.182;5.638;2023-08-06T04:17:19;11.63;;;8.80;;
51566;SDS011;37657;53.182;5.638;2023-08-06T04:19:46;11.52;;;8.95;;
51566;SDS011;37657;53.182;5.638;2023-08-06T04:22:13;14.93;;;10.27;;
51566;SDS011;37657;53.182;5.638;2023-08-06T04:24:39;10.40;;;9.25;;
51566;SDS011;37657;53.182;5.638;2023-08-06T04:27:04;10.20;;;9.07;;
51566;SDS011;37657;53.182;5.638;2023-08-06T04:29:30;11.38;;;9.95;;
51566;SDS011;37657;53.182;5.638;2023-08-06T04:31:56;11.18;;;9.85;;
51566;SDS011;37657;53.182;5.638;2023-08-06T04:34:21;9.43;;;8.55;;
51566;SDS011;37657;53.182;5.638;2023-08-06T04:36:48;13.40;;;9.77;;
51566;SDS011;37657;53.182;5.638;2023-08-06T04:39:13;12.30;;;11.07;;
51566;SDS011;37657;53.182;5.638;2023-08-06T04:41:39;9.45;;;8.20;;
51566;SDS011;37657;53.182;5.638;2023-08-06T04:44:04;10.30;;;9.18;;
51566;SDS011;37657;53.182;5.638;2023-08-06T04:46:30;9.95;;;8.95;;
51566;SDS011;37657;53.182;5.638;2023-08-06T04:48:56;10.20;;;8.05;;
51566;SDS011;37657;53.182;5.638;2023-08-06T04:51:21;13.65;;;11.18;;
51566;SDS011;37657;53.182;5.638;2023-08-06T04:53:47;15.20;;;11.30;;
51566;SDS011;37657;53.182;5.638;2023-08-06T04:56:12;14.98;;;11.02;;
51566;SDS011;37657;53.182;5.638;2023-08-06T04:58:38;10.35;;;8.98;;
51566;SDS011;37657;53.182;5.638;2023-08-06T05:01:03;14.48;;;11.60;;
51566;SDS011;37657;53.182;5.638;2023-08-06T05:03:29;10.85;;;9.70;;
51566;SDS011;37657;53.182;5.638;2023-08-06T05:05:54;12.00;;;10.70;;
51566;SDS011;37657;53.182;5.638;2023-08-06T05:08:20;12.63;;;10.57;;
51566;SDS011;37657;53.182;5.638;2023-08-06T05:10:45;11.20;;;9.65;;
51566;SDS011;37657;53.182;5.638;2023-08-06T05:13:11;13.13;;;10.55;;
51566;SDS011;37657;53.182;5.638;2023-08-06T05:15:37;13.43;;;10.60;;
51566;SDS011;37657;53.182;5.638;2023-08-06T05:18:04;13.38;;;11.02;;
51566;SDS011;37657;53.182;5.638;2023-08-06T05:20:30;12.48;;;8.98;;
51566;SDS011;37657;53.182;5.638;2023-08-06T05:22:55;14.30;;;12.80;;
51566;SDS011;37657;53.182;5.638;2023-08-06T05:25:21;9.30;;;8.38;;
51566;SDS011;37657;53.182;5.638;2023-08-06T05:27:46;11.23;;;10.13;;
51566;SDS011;37657;53.182;5.638;2023-08-06T05:30:12;11.70;;;9.10;;
51566;SDS011;37657;53.182;5.638;2023-08-06T05:32:38;13.77;;;12.00;;
51566;SDS011;37657;53.182;5.638;2023-08-06T05:35:03;14.55;;;9.82;;
51566;SDS011;37657;53.182;5.638;2023-08-06T05:37:29;11.13;;;9.35;;
51566;SDS011;37657;53.182;5.638;2023-08-06T05:39:55;11.32;;;10.00;;
51566;SDS011;37657;53.182;5.638;2023-08-06T05:42:20;15.10;;;11.93;;
51566;SDS011;37657;53.182;5.638;2023-08-06T05:44:46;14.77;;;9.40;;
51566;SDS011;37657;53.182;5.638;2023-08-06T05:47:11;11.20;;;9.88;;
51566;SDS011;37657;53.182;5.638;2023-08-06T05:49:37;17.20;;;11.18;;
51566;SDS011;37657;53.182;5.638;2023-08-06T05:52:02;11.27;;;10.07;;
51566;SDS011;37657;53.182;5.638;2023-08-06T05:54:31;12.25;;;10.02;;
51566;SDS011;37657;53.182;5.638;2023-08-06T05:56:56;11.70;;;9.93;;
51566;SDS011;37657;53.182;5.638;2023-08-06T05:59:22;13.88;;;10.85;;
51566;SDS011;37657;53.182;5.638;2023-08-06T06:01:47;11.57;;;9.65;;
51566;SDS011;37657;53.182;5.638;2023-08-06T06:04:13;12.63;;;10.73;;
51566;SDS011;37657;53.182;5.638;2023-08-06T06:06:39;14.02;;;11.88;;
51566;SDS011;37657;53.182;5.638;2023-08-06T06:09:06;12.98;;;10.40;;
51566;SDS011;37657;53.182;5.638;2023-08-06T06:11:32;8.25;;;6.95;;
51566;SDS011;37657;53.182;5.638;2023-08-06T06:13:57;13.80;;;10.57;;
51566;SDS011;37657;53.182;5.638;2023-08-06T06:16:23;11.98;;;10.73;;
51566;SDS011;37657;53.182;5.638;2023-08-06T06:18:48;13.02;;;11.70;;
51566;SDS011;37657;53.182;5.638;2023-08-06T06:21:14;14.27;;;11.02;;
51566;SDS011;37657;53.182;5.638;2023-08-06T06:23:39;12.38;;;10.25;;
51566;SDS011;37657;53.182;5.638;2023-08-06T06:26:05;12.98;;;10.80;;
51566;SDS011;37657;53.182;5.638;2023-08-06T06:28:30;10.32;;;9.27;;
51566;SDS011;37657;53.182;5.638;2023-08-06T06:31:00;15.27;;;10.85;;
51566;SDS011;37657;53.182;5.638;2023-08-06T06:33:26;10.35;;;9.15;;
51566;SDS011;37657;53.182;5.638;2023-08-06T06:35:52;10.82;;;9.80;;
51566;SDS011;37657;53.182;5.638;2023-08-06T06:38:17;11.20;;;9.65;;
51566;SDS011;37657;53.182;5.638;2023-08-06T06:40:43;12.13;;;10.13;;
51566;SDS011;37657;53.182;5.638;2023-08-06T06:43:08;10.63;;;9.52;;
51566;SDS011;37657;53.182;5.638;2023-08-06T06:45:34;16.35;;;10.63;;
51566;SDS011;37657;53.182;5.638;2023-08-06T06:47:59;11.65;;;10.48;;
51566;SDS011;37657;53.182;5.638;2023-08-06T06:50:25;16.65;;;11.48;;
51566;SDS011;37657;53.182;5.638;2023-08-06T06:52:51;10.98;;;9.80;;
51566;SDS011;37657;53.182;5.638;2023-08-06T06:55:16;12.70;;;9.18;;
51566;SDS011;37657;53.182;5.638;2023-08-06T06:57:42;11.27;;;8.43;;
51566;SDS011;37657;53.182;5.638;2023-08-06T07:00:08;11.45;;;9.32;;
51566;SDS011;37657;53.182;5.638;2023-08-06T07:02:34;13.57;;;10.68;;
51566;SDS011;37657;53.182;5.638;2023-08-06T07:04:59;14.02;;;11.30;;
51566;SDS011;37657;53.182;5.638;2023-08-06T07:07:25;11.63;;;9.85;;
51566;SDS011;37657;53.182;5.638;2023-08-06T07:09:50;14.90;;;9.70;;
51566;SDS011;37657;53.182;5.638;2023-08-06T07:12:16;9.75;;;8.85;;
51566;SDS011;37657;53.182;5.638;2023-08-06T07:14:41;10.75;;;9.40;;
51566;SDS011;37657;53.182;5.638;2023-08-06T07:17:07;10.63;;;9.05;;
51566;SDS011;37657;53.182;5.638;2023-08-06T07:19:32;10.43;;;9.43;;
51566;SDS011;37657;53.182;5.638;2023-08-06T07:21:58;11.57;;;10.38;;
51566;SDS011;37657;53.182;5.638;2023-08-06T07:24:23;10.07;;;8.93;;
51566;SDS011;37657;53.182;5.638;2023-08-06T07:26:49;10.68;;;8.85;;
51566;SDS011;37657;53.182;5.638;2023-08-06T07:29:14;11.90;;;8.70;;
51566;SDS011;37657;53.182;5.638;2023-08-06T07:31:44;9.95;;;8.98;;
51566;SDS011;37657;53.182;5.638;2023-08-06T07:34:10;10.60;;;9.02;;
51566;SDS011;37657;53.182;5.638;2023-08-06T07:36:36;17.77;;;12.02;;
51566;SDS011;37657;53.182;5.638;2023-08-06T07:39:01;12.52;;;10.13;;
51566;SDS011;37657;53.182;5.638;2023-08-06T07:41:27;13.10;;;11.63;;
51566;SDS011;37657;53.182;5.638;2023-08-06T07:43:53;11.43;;;10.25;;
51566;SDS011;37657;53.182;5.638;2023-08-06T07:46:18;11.23;;;9.30;;
51566;SDS011;37657;53.182;5.638;2023-08-06T07:48:44;14.27;;;8.95;;
51566;SDS011;37657;53.182;5.638;2023-08-06T07:51:09;11.68;;;10.27;;
51566;SDS011;37657;53.182;5.638;2023-08-06T07:53:35;12.38;;;9.98;;
51566;SDS011;37657;53.182;5.638;2023-08-06T07:56:00;11.05;;;8.43;;
51566;SDS011;37657;53.182;5.638;2023-08-06T07:58:27;9.23;;;8.30;;
51566;SDS011;37657;53.182;5.638;2023-08-06T08:00:54;14.40;;;9.05;;
51566;SDS011;37657;53.182;5.638;2023-08-06T08:03:20;12.80;;;9.75;;
51566;SDS011;37657;53.182;5.638;2023-08-06T08:05:46;11.90;;;10.18;;
51566;SDS011;37657;53.182;5.638;2023-08-06T08:08:11;9.80;;;8.63;;
51566;SDS011;37657;53.182;5.638;2023-08-06T08:10:37;11.48;;;9.68;;
51566;SDS011;37657;53.182;5.638;2023-08-06T08:13:03;12.38;;;9.75;;
51566;SDS011;37657;53.182;5.638;2023-08-06T08:15:30;12.57;;;9.00;;
51566;SDS011;37657;53.182;5.638;2023-08-06T08:17:56;10.85;;;9.75;;
51566;SDS011;37657;53.182;5.638;2023-08-06T08:20:23;9.32;;;8.30;;
51566;SDS011;37657;53.182;5.638;2023-08-06T08:22:48;11.30;;;9.27;;
51566;SDS011;37657;53.182;5.638;2023-08-06T08:25:15;11.55;;;9.27;;
51566;SDS011;37657;53.182;5.638;2023-08-06T08:27:40;16.48;;;9.40;;
51566;SDS011;37657;53.182;5.638;2023-08-06T08:30:06;8.80;;;7.38;;
51566;SDS011;37657;53.182;5.638;2023-08-06T08:32:32;9.10;;;7.68;;
51566;SDS011;37657;53.182;5.638;2023-08-06T08:34:57;8.65;;;7.13;;
51566;SDS011;37657;53.182;5.638;2023-08-06T08:37:23;9.40;;;7.38;;
51566;SDS011;37657;53.182;5.638;2023-08-06T08:39:49;15.25;;;9.55;;
51566;SDS011;37657;53.182;5.638;2023-08-06T08:42:15;11.20;;;7.75;;
51566;SDS011;37657;53.182;5.638;2023-08-06T08:44:41;10.75;;;8.77;;
51566;SDS011;37657;53.182;5.638;2023-08-06T08:47:08;10.05;;;8.43;;
51566;SDS011;37657;53.182;5.638;2023-08-06T08:49:35;10.93;;;7.40;;
51566;SDS011;37657;53.182;5.638;2023-08-06T08:52:02;13.05;;;7.78;;
51566;SDS011;37657;53.182;5.638;2023-08-06T08:54:31;8.15;;;6.30;;
51566;SDS011;37657;53.182;5.638;2023-08-06T08:56:58;9.65;;;8.18;;
51566;SDS011;37657;53.182;5.638;2023-08-06T08:59:23;8.35;;;6.15;;
51566;SDS011;37657;53.182;5.638;2023-08-06T09:01:49;10.82;;;6.25;;
51566;SDS011;37657;53.182;5.638;2023-08-06T09:04:16;8.13;;;7.07;;
51566;SDS011;37657;53.182;5.638;2023-08-06T09:06:43;8.98;;;6.32;;
51566;SDS011;37657;53.182;5.638;2023-08-06T09:09:13;6.22;;;4.88;;
51566;SDS011;37657;53.182;5.638;2023-08-06T09:11:53;8.48;;;5.43;;
51566;SDS011;37657;53.182;5.638;2023-08-06T09:14:24;8.73;;;4.68;;
51566;SDS011;37657;53.182;5.638;2023-08-06T09:16:51;6.28;;;4.03;;
51566;SDS011;37657;53.182;5.638;2023-08-06T09:19:17;7.15;;;3.40;;
51566;SDS011;37657;53.182;5.638;2023-08-06T09:21:42;10.43;;;4.30;;
51566;SDS011;37657;53.182;5.638;2023-08-06T09:24:09;7.50;;;3.90;;
51566;SDS011;37657;53.182;5.638;2023-08-06T09:26:44;5.93;;;3.70;;
51566;SDS011;37657;53.182;5.638;2023-08-06T09:29:10;5.37;;;3.37;;
51566;SDS011;37657;53.182;5.638;2023-08-06T09:31:40;5.53;;;3.63;;
51566;SDS011;37657;53.182;5.638;2023-08-06T09:34:09;6.82;;;3.47;;
51566;SDS011;37657;53.182;5.638;2023-08-06T09:36:39;3.75;;;2.58;;
51566;SDS011;37657;53.182;5.638;2023-08-06T09:39:15;3.17;;;2.53;;
51566;SDS011;37657;53.182;5.638;2023-08-06T09:41:42;6.18;;;3.05;;
51566;SDS011;37657;53.182;5.638;2023-08-06T09:44:19;5.22;;;3.70;;
51566;SDS011;37657;53.182;5.638;2023-08-06T09:46:50;5.38;;;3.80;;
51566;SDS011;37657;53.182;5.638;2023-08-06T09:52:12;10.38;;;4.68;;
51566;SDS011;37657;53.182;5.638;2023-08-06T09:54:40;4.70;;;3.58;;
51566;SDS011;37657;53.182;5.638;2023-08-06T09:57:08;5.68;;;3.60;;
51566;SDS011;37657;53.182;5.638;2023-08-06T09:59:35;3.00;;;2.72;;
51566;SDS011;37657;53.182;5.638;2023-08-06T10:02:04;8.02;;;4.47;;
51566;SDS011;37657;53.182;5.638;2023-08-06T10:04:38;5.55;;;3.92;;
51566;SDS011;37657;53.182;5.638;2023-08-06T10:07:04;5.80;;;3.40;;
51566;SDS011;37657;53.182;5.638;2023-08-06T10:09:30;7.75;;;3.78;;
51566;SDS011;37657;53.182;5.638;2023-08-06T10:11:55;5.47;;;3.20;;
51566;SDS011;37657;53.182;5.638;2023-08-06T10:14:24;7.00;;;3.85;;
51566;SDS011;37657;53.182;5.638;2023-08-06T10:16:53;5.22;;;4.20;;
51566;SDS011;37657;53.182;5.638;2023-08-06T10:19:22;5.95;;;3.05;;
51566;SDS011;37657;53.182;5.638;2023-08-06T10:24:47;7.15;;;3.88;;
51566;SDS011;37657;53.182;5.638;2023-08-06T10:27:21;7.45;;;3.28;;
51566;SDS011;37657;53.182;5.638;2023-08-06T10:29:48;6.25;;;4.03;;
51566;SDS011;37657;53.182;5.638;2023-08-06T10:32:15;3.80;;;2.95;;
51566;SDS011;37657;53.182;5.638;2023-08-06T10:34:58;4.95;;;2.90;;
51566;SDS011;37657;53.182;5.638;2023-08-06T10:37:35;6.47;;;4.43;;
51566;SDS011;37657;53.182;5.638;2023-08-06T10:40:01;5.80;;;2.97;;
51566;SDS011;37657;53.182;5.638;2023-08-06T10:42:28;9.45;;;3.97;;
51566;SDS011;37657;53.182;5.638;2023-08-06T10:47:40;5.35;;;3.50;;
51566;SDS011;37657;53.182;5.638;2023-08-06T10:50:13;4.40;;;3.25;;
51566;SDS011;37657;53.182;5.638;2023-08-06T10:52:42;7.03;;;4.53;;
51566;SDS011;37657;53.182;5.638;2023-08-06T10:55:08;5.13;;;3.05;;
51566;SDS011;37657;53.182;5.638;2023-08-06T10:57:34;7.82;;;3.63;;
51566;SDS011;37657;53.182;5.638;2023-08-06T11:00:00;6.25;;;4.07;;
51566;SDS011;37657;53.182;5.638;2023-08-06T11:02:26;12.57;;;5.18;;
51566;SDS011;37657;53.182;5.638;2023-08-06T11:04:53;7.00;;;4.75;;
51566;SDS011;37657;53.182;5.638;2023-08-06T11:07:18;6.53;;;4.55;;
51566;SDS011;37657;53.182;5.638;2023-08-06T11:09:44;7.18;;;4.43;;
51566;SDS011;37657;53.182;5.638;2023-08-06T11:12:09;8.57;;;6.03;;
51566;SDS011;37657;53.182;5.638;2023-08-06T11:14:35;9.82;;;5.07;;
51566;SDS011;37657;53.182;5.638;2023-08-06T11:17:01;4.60;;;3.78;;
51566;SDS011;37657;53.182;5.638;2023-08-06T11:19:27;8.25;;;4.88;;
51566;SDS011;37657;53.182;5.638;2023-08-06T11:21:52;6.38;;;4.13;;
51566;SDS011;37657;53.182;5.638;2023-08-06T11:24:19;4.55;;;3.83;;
51566;SDS011;37657;53.182;5.638;2023-08-06T11:26:45;7.03;;;4.55;;
51566;SDS011;37657;53.182;5.638;2023-08-06T11:29:11;5.00;;;4.18;;
51566;SDS011;37657;53.182;5.638;2023-08-06T11:31:36;6.53;;;4.40;;
51566;SDS011;37657;53.182;5.638;2023-08-06T11:34:02;6.10;;;3.53;;
51566;SDS011;37657;53.182;5.638;2023-08-06T11:36:28;5.90;;;3.75;;
51566;SDS011;37657;53.182;5.638;2023-08-06T11:38:54;6.22;;;4.20;;
51566;SDS011;37657;53.182;5.638;2023-08-06T11:41:20;6.13;;;4.13;;
51566;SDS011;37657;53.182;5.638;2023-08-06T11:43:45;5.53;;;4.30;;
51566;SDS011;37657;53.182;5.638;2023-08-06T11:46:12;4.32;;;3.85;;
51566;SDS011;37657;53.182;5.638;2023-08-06T11:48:50;6.10;;;4.28;;
51566;SDS011;37657;53.182;5.638;2023-08-06T11:51:22;6.05;;;4.00;;
51566;SDS011;37657;53.182;5.638;2023-08-06T11:53:49;6.13;;;4.70;;
51566;SDS011;37657;53.182;5.638;2023-08-06T11:56:15;5.20;;;4.03;;
51566;SDS011;37657;53.182;5.638;2023-08-06T11:58:41;6.45;;;4.32;;
51566;SDS011;37657;53.182;5.638;2023-08-06T12:01:07;7.65;;;5.03;;
51566;SDS011;37657;53.182;5.638;2023-08-06T12:03:32;5.78;;;3.97;;
51566;SDS011;37657;53.182;5.638;2023-08-06T12:06:04;7.65;;;4.50;;
51566;SDS011;37657;53.182;5.638;2023-08-06T12:08:30;6.32;;;4.55;;
51566;SDS011;37657;53.182;5.638;2023-08-06T12:10:56;6.38;;;4.53;;
51566;SDS011;37657;53.182;5.638;2023-08-06T12:13:21;8.25;;;4.10;;
51566;SDS011;37657;53.182;5.638;2023-08-06T12:15:47;8.02;;;4.60;;
51566;SDS011;37657;53.182;5.638;2023-08-06T12:18:12;6.85;;;3.83;;
51566;SDS011;37657;53.182;5.638;2023-08-06T12:20:38;4.88;;;3.55;;
51566;SDS011;37657;53.182;5.638;2023-08-06T12:23:03;6.97;;;4.22;;
51566;SDS011;37657;53.182;5.638;2023-08-06T12:25:29;5.88;;;3.70;;
51566;SDS011;37657;53.182;5.638;2023-08-06T12:27:55;9.20;;;4.28;;
51566;SDS011;37657;53.182;5.638;2023-08-06T12:30:20;7.32;;;4.68;;
51566;SDS011;37657;53.182;5.638;2023-08-06T12:32:46;5.65;;;3.95;;
51566;SDS011;37657;53.182;5.638;2023-08-06T12:35:11;4.20;;;3.05;;
51566;SDS011;37657;53.182;5.638;2023-08-06T12:37:39;4.05;;;2.80;;
51566;SDS011;37657;53.182;5.638;2023-08-06T12:40:04;5.43;;;4.03;;
51566;SDS011;37657;53.182;5.638;2023-08-06T12:42:30;5.45;;;3.42;;
51566;SDS011;37657;53.182;5.638;2023-08-06T12:44:56;7.40;;;3.50;;
51566;SDS011;37657;53.182;5.638;2023-08-06T12:47:21;4.93;;;3.25;;
51566;SDS011;37657;53.182;5.638;2023-08-06T12:49:47;6.15;;;3.55;;
51566;SDS011;37657;53.182;5.638;2023-08-06T12:52:14;4.95;;;3.42;;
51566;SDS011;37657;53.182;5.638;2023-08-06T12:54:40;10.65;;;4.38;;
51566;SDS011;37657;53.182;5.638;2023-08-06T12:57:06;7.20;;;4.38;;
51566;SDS011;37657;53.182;5.638;2023-08-06T12:59:31;6.50;;;3.95;;
51566;SDS011;37657;53.182;5.638;2023-08-06T13:01:58;7.78;;;4.43;;
51566;SDS011;37657;53.182;5.638;2023-08-06T13:04:24;6.90;;;4.25;;
51566;SDS011;37657;53.182;5.638;2023-08-06T13:06:50;9.50;;;5.43;;
51566;SDS011;37657;53.182;5.638;2023-08-06T13:09:15;3.45;;;3.13;;
51566;SDS011;37657;53.182;5.638;2023-08-06T13:11:41;5.93;;;3.50;;
51566;SDS011;37657;53.182;5.638;2023-08-06T13:14:11;4.93;;;3.22;;
51566;SDS011;37657;53.182;5.638;2023-08-06T13:16:38;9.57;;;4.15;;
51566;SDS011;37657;53.182;5.638;2023-08-06T13:19:05;8.15;;;3.60;;
51566;SDS011;37657;53.182;5.638;2023-08-06T13:22:17;4.80;;;3.00;;
51566;SDS011;37657;53.182;5.638;2023-08-06T13:24:23;4.72;;;3.10;;
51566;SDS011;37657;53.182;5.638;2023-08-06T13:26:49;4.55;;;3.30;;
51566;SDS011;37657;53.182;5.638;2023-08-06T13:29:14;5.63;;;2.88;;
51566;SDS011;37657;53.182;5.638;2023-08-06T13:31:40;4.50;;;3.58;;
51566;SDS011;37657;53.182;5.638;2023-08-06T13:34:06;4.32;;;2.90;;
51566;SDS011;37657;53.182;5.638;2023-08-06T13:36:31;6.82;;;4.22;;
51566;SDS011;37657;53.182;5.638;2023-08-06T13:38:57;4.80;;;3.55;;
51566;SDS011;37657;53.182;5.638;2023-08-06T13:41:22;5.50;;;3.42;;
51566;SDS011;37657;53.182;5.638;2023-08-06T13:43:48;5.95;;;3.38;;
51566;SDS011;37657;53.182;5.638;2023-08-06T13:46:14;4.25;;;3.25;;
51566;SDS011;37657;53.182;5.638;2023-08-06T13:48:41;4.90;;;3.58;;
51566;SDS011;37657;53.182;5.638;2023-08-06T13:51:11;6.40;;;3.55;;
51566;SDS011;37657;53.182;5.638;2023-08-06T13:53:38;4.80;;;2.90;;
51566;SDS011;37657;53.182;5.638;2023-08-06T13:56:04;4.65;;;2.70;;
51566;SDS011;37657;53.182;5.638;2023-08-06T13:58:30;3.80;;;2.67;;
51566;SDS011;37657;53.182;5.638;2023-08-06T14:00:56;5.07;;;3.05;;
51566;SDS011;37657;53.182;5.638;2023-08-06T14:03:22;4.40;;;2.67;;
51566;SDS011;37657;53.182;5.638;2023-08-06T14:05:48;6.28;;;3.28;;
51566;SDS011;37657;53.182;5.638;2023-08-06T14:08:15;7.80;;;4.28;;
51566;SDS011;37657;53.182;5.638;2023-08-06T14:10:43;5.38;;;3.47;;
51566;SDS011;37657;53.182;5.638;2023-08-06T14:13:09;4.30;;;3.17;;
51566;SDS011;37657;53.182;5.638;2023-08-06T14:15:35;6.55;;;3.53;;
51566;SDS011;37657;53.182;5.638;2023-08-06T14:18:00;5.82;;;4.22;;
51566;SDS011;37657;53.182;5.638;2023-08-06T14:20:27;5.22;;;3.25;;
51566;SDS011;37657;53.182;5.638;2023-08-06T14:22:52;5.90;;;4.00;;
51566;SDS011;37657;53.182;5.638;2023-08-06T14:25:18;4.63;;;3.55;;
51566;SDS011;37657;53.182;5.638;2023-08-06T14:27:43;4.18;;;3.55;;
51566;SDS011;37657;53.182;5.638;2023-08-06T14:30:09;5.53;;;4.07;;
51566;SDS011;37657;53.182;5.638;2023-08-06T14:32:35;5.25;;;3.28;;
51566;SDS011;37657;53.182;5.638;2023-08-06T14:35:00;6.00;;;4.47;;
51566;SDS011;37657;53.182;5.638;2023-08-06T14:37:26;5.20;;;2.95;;
51566;SDS011;37657;53.182;5.638;2023-08-06T14:39:51;5.60;;;3.10;;
51566;SDS011;37657;53.182;5.638;2023-08-06T14:42:17;4.65;;;3.20;;
51566;SDS011;37657;53.182;5.638;2023-08-06T14:44:43;5.60;;;3.67;;
51566;SDS011;37657;53.182;5.638;2023-08-06T14:47:08;4.47;;;3.17;;
51566;SDS011;37657;53.182;5.638;2023-08-06T14:49:34;5.82;;;4.20;;